Historyczne dane pomiarowe

Dodano dane terminowe – wersja testowa.

Dane z okresu 1951-2019

Wersja bazy: 1.34 [2019-03-16, lista zmian], aktualizacja planowana na 2019-04-15

Dane meteo z obszaru Polski uzyskane na podstawie danych udostępnionych przez Instytut Meteorologii i Gospodarki Wodnej – Państwowy Instytut Badawczy.

 

Wybierz Datę:    

       

TemperaturaWilgotnośćWiatrCiśnienieOpadyŚniegCzas trwania zjawisk
 Stacja t tx tn tng RH VA  wxwx mslp ppp RRR   cm mm wxwxwxwxwxwxwx
1987-08-14 13.4 16.5 7.6- 78.3- 8.0 1.7---- 7.6------------
1987-08-13 14.1 20.0 7.7- 63.8- 5.7 1.3---- 0.2------------
1987-08-12 13.7 18.8 8.1- 66.8- 3.3 0.0---- 0.1------------
1987-08-11 14.3 19.0 11.9- 70.3- 5.3 2.7---- 0.1------------
1987-08-10 15.4 20.6 13.2- 80.5- 8.0 0.0---- 7.4------------
1987-08-09 18.2 23.6 9.5- 56.3- 2.7 2.0---- 2.3------------
1987-08-08 15.8 21.1 8.4- 63.5- 1.3 1.3---- 0.0------------
1987-08-07 11.0 13.6 10.1- 82.8- 8.0 0.7---- 2.5------------
1987-08-06 12.4 15.9 10.6- 71.8- 6.3 2.3---- 1.1------------
1987-08-05 12.7 17.2 9.1- 79.0- 6.3 1.7---- 2.0------------
1987-08-04 16.1 19.5 15.5- 74.8- 6.0 3.0---- 0.0------------
1987-08-03 16.0 20.4 11.1- 73.5- 5.0 2.0---- 5.6------------
1987-08-02 15.5 19.1 12.0- 71.8- 5.3 0.3---- 2.8------------
1987-08-01 15.7 20.0 11.9- 77.3- 7.3 1.0---- 1.5------------
1987-07-31 17.7 22.4 13.6- 84.0- 8.0 0.0---- 2.1------------
1987-07-30 19.6 24.4 12.6- 69.5- 6.7 0.7---- 5.2------------
1987-07-29 15.5 19.2 11.1- 69.5- 7.3 1.3---- 0.0------------
1987-07-28 14.0 15.5 12.6- 80.5- 8.0 3.7---- 2.0------------
1987-07-27 12.9 17.4 9.2- 76.5- 4.7 3.7---- 6.1------------
1987-07-26 13.6 20.1 12.1- 83.0- 8.0 0.3---- 4.0------------
1987-07-25 20.0 23.9 15.1- 72.8- 5.3 3.0---- 0.4------------
1987-07-24 21.4 26.0 18.0- 72.5- 4.7 2.3---- 7.4------------
1987-07-23 22.0 27.6 15.0- 71.0- 4.0 0.0---- 1.8------------
1987-07-22 20.8 28.6 15.1- 72.3- 2.7 0.7---- 0.0------------
1987-07-21 19.8 26.0 14.9- 76.3- 5.7 0.0---- 42.0------------
1987-07-20 19.5 23.6 16.1- 81.3- 5.7 0.7---- 0.0------------
1987-07-19 22.8 27.9 20.6- 69.5- 6.0 3.0---- 6.0------------
1987-07-18 25.9 30.0 18.0- 61.8- 4.0 0.3---- 0.0------------
1987-07-17 25.0 32.2 18.6- 63.0- 4.0 0.7---- 0.0------------
1987-07-16 22.7 28.5 15.1- 62.5- 4.0 0.7---- 2.0------------
1987-07-15 19.6 25.2 12.0- 59.5- 0.3 1.0---- 0.0------------
1987-07-14 18.3 22.0 12.0- 56.3- 0.0 0.7---- 0.0------------
1987-07-13 19.3 24.0 15.6- 71.3- 4.3 2.0---- 0.0------------
1987-07-12 21.7 28.4 14.0- 64.0- 2.3 6.0---- 8.2------------
1987-07-11 18.2 23.4 9.1- 67.8- 1.0 2.7---- 0.0------------
1987-07-10 16.1 20.4 11.1- 67.5- 2.3 2.0---- 0.2------------
1987-07-09 17.8 24.6 16.9- 84.8- 8.0 2.0---- 6.1------------
1987-07-08 23.2 28.5 13.6- 49.8- 1.7 3.0---- 0.8------------
1987-07-07 20.6 27.1 9.9- 50.8- 0.0 0.7---- 0.0------------
1987-07-06 19.5 24.5 11.5- 59.3- 1.7 0.0---- 0.0------------
1987-07-05 16.8 20.5 12.0- 71.5- 5.3 1.3---- 0.0------------
1987-07-04 19.9 24.6 14.6- 62.8- 4.0 1.3---- 0.0------------
1987-07-03 19.0 22.5 15.6- 75.3- 8.0 1.3---- 0.1------------
1987-07-02 19.1 27.3 17.0- 83.3- 8.0 2.0---- 0.5------------
1987-07-01 26.1 30.0 20.5- 64.3- 0.0 5.0---- 0.0------------
1987-06-30 24.2 29.6 16.2- 69.5- 0.0 1.3---- 0.0------------
1987-06-29 22.5 26.0 18.0- 68.5- 5.7 0.0---- 0.0------------
1987-06-28 20.0 25.5 11.3- 70.5- 4.0 2.0---- 0.1------------
1987-06-27 17.8 22.0 16.0- 78.5- 8.0 0.0---- 0.1------------
1987-06-26 17.8 24.5 10.0- 66.5- 4.3 6.0---- 12.9------------
1987-06-25 15.7 18.6 13.0- 68.8- 7.3 1.0---- 0.1------------
1987-06-24 19.3 23.5 12.1- 65.5- 5.7 2.0---- 0.3------------
1987-06-23 16.7 20.6 12.0- 75.0- 5.0 0.7---- 1.5------------
1987-06-22 14.3 17.6 8.2- 91.5- 8.0 2.7---- 0.1------------
1987-06-21 17.6 23.5 9.6- 68.3- 7.3 0.0---- 0.1------------
1987-06-20 13.7 19.6 8.1- 64.5- 3.7 2.0---- 0.3------------
1987-06-19 13.8 19.0 8.2- 66.5- 3.3 1.7---- 0.1------------
1987-06-18 11.5 14.5 9.0- 78.3- 8.0 1.0---- 0.3------------
1987-06-17 13.1 15.2 10.0- 68.5- 6.7 5.3---- 0.1------------
1987-06-16 14.1 24.0 10.0- 81.8- 8.0 5.3---- 6.0------------
500.4 ms

 

Źródłem pochodzenia danych jest Instytut Meteorologii i Gospodarki Wodnej – Państwowy Instytut Badawczy. Dane Instytutu Meteorologii i Gospodarki Wodnej – Państwowego Instytutu Badawczego zostały przetworzone.

Dane źródłowe można odnaleźć na stronie https://dane.imgw.pl